Time;durP1;ratioP1;P1;durP2;ratioP2;P2;SDS_P1;SDS_P2;PMS_P1;PMS_P2;Temp;Humidity;BMP_temperature;BMP_pressure;BME280_temperature;BME280_humidity;BME280_pressure;Samples;Min_cycle;Max_cycle;Signal;HPM_P1;HPM_P2
2023/03/13 00:00:51;;;;;;;0.90;0.90;;;;;;;;;;5054766;28;20094;-87
2023/03/13 00:03:19;;;;;;;1.95;1.85;;;;;;;;;;5055768;28;20041;-88
2023/03/13 00:05:46;;;;;;;1.20;1.10;;;;;;;;;;5055121;28;20049;-88
2023/03/13 00:08:12;;;;;;;1.00;1.00;;;;;;;;;;5054854;28;20555;-88
2023/03/13 00:10:39;;;;;;;1.75;1.48;;;;;;;;;;5055036;28;20049;-87
2023/03/13 00:13:05;;;;;;;0.60;0.60;;;;;;;;;;5054846;28;20107;-87
2023/03/13 00:15:32;;;;;;;1.42;1.33;;;;;;;;;;5054148;28;20049;-87
2023/03/13 00:17:59;;;;;;;0.75;0.75;;;;;;;;;;5035230;28;20054;-87
2023/03/13 00:20:27;;;;;;;5.40;5.20;;;;;;;;;;5034578;28;20390;-87
2023/03/13 00:22:53;;;;;;;2.17;2.08;;;;;;;;;;5034592;28;20072;-87
2023/03/13 00:25:19;;;;;;;3.40;3.30;;;;;;;;;;5034857;28;20386;-87
2023/03/13 00:27:46;;;;;;;0.47;0.47;;;;;;;;;;5034926;28;20099;-87
2023/03/13 00:30:13;;;;;;;0.63;0.63;;;;;;;;;;5034755;28;20099;-87
2023/03/13 00:32:40;;;;;;;0.70;0.70;;;;;;;;;;5034599;28;20053;-87
2023/03/13 00:35:07;;;;;;;0.73;0.73;;;;;;;;;;5034823;28;20057;-87
2023/03/13 00:37:35;;;;;;;0.60;0.60;;;;;;;;;;5034603;28;20119;-87
2023/03/13 00:40:02;;;;;;;2.92;2.83;;;;;;;;;;5034739;28;20579;-87
2023/03/13 00:42:29;;;;;;;0.47;0.47;;;;;;;;;;5034640;28;20046;-88
2023/03/13 00:44:55;;;;;;;0.65;0.65;;;;;;;;;;5034185;28;20107;-87
2023/03/13 00:47:22;;;;;;;0.32;0.32;;;;;;;;;;5034580;28;20057;-87
2023/03/13 00:49:49;;;;;;;0.88;0.88;;;;;;;;;;5034331;28;20559;-87
2023/03/13 00:52:15;;;;;;;0.77;0.77;;;;;;;;;;5034059;28;20050;-87
2023/03/13 00:54:43;;;;;;;0.55;0.55;;;;;;;;;;5033975;28;20057;-87
2023/03/13 00:57:10;;;;;;;1.05;1.05;;;;;;;;;;5034058;28;20045;-87
2023/03/13 00:59:36;;;;;;;0.75;0.75;;;;;;;;;;5033962;28;20099;-87
2023/03/13 01:02:03;;;;;;;0.70;0.70;;;;;;;;;;5034262;28;20041;-87
2023/03/13 01:04:29;;;;;;;2.47;1.83;;;;;;;;;;5035693;28;20088;-86
2023/03/13 01:06:56;;;;;;;0.68;0.68;;;;;;;;;;5053896;28;20045;-86
2023/03/13 01:09:22;;;;;;;0.90;0.90;;;;;;;;;;5053974;28;20102;-87
2023/03/13 01:11:50;;;;;;;0.35;0.35;;;;;;;;;;5053674;28;20049;-86
2023/03/13 01:14:17;;;;;;;0.90;0.90;;;;;;;;;;5053705;28;20048;-86
2023/03/13 01:16:44;;;;;;;1.10;1.10;;;;;;;;;;5053658;28;20045;-87
2023/03/13 01:19:11;;;;;;;1.40;1.30;;;;;;;;;;5053894;28;20049;-87
2023/03/13 01:21:38;;;;;;;1.55;1.45;;;;;;;;;;5052419;28;20045;-87
2023/03/13 01:24:05;;;;;;;0.82;0.82;;;;;;;;;;5053382;28;20815;-87
2023/03/13 01:26:32;;;;;;;0.82;0.82;;;;;;;;;;5053353;28;20057;-87
2023/03/13 01:29:00;;;;;;;0.65;0.65;;;;;;;;;;5053408;28;20045;-87
2023/03/13 01:31:28;;;;;;;1.58;1.48;;;;;;;;;;5053288;28;20103;-87
2023/03/13 01:33:55;;;;;;;0.55;0.55;;;;;;;;;;5053672;28;20071;-87
2023/03/13 01:36:21;;;;;;;0.55;0.52;;;;;;;;;;5053011;28;20049;-87
2023/03/13 01:38:48;;;;;;;1.35;1.25;;;;;;;;;;5052701;28;20095;-88
2023/03/13 01:41:15;;;;;;;1.50;1.45;;;;;;;;;;5053311;28;20049;-87
2023/03/13 01:43:42;;;;;;;0.68;0.68;;;;;;;;;;5052857;28;20072;-87
2023/03/13 01:46:16;;;;;;;1.00;0.93;;;;;;;;;;5052810;28;20049;-87
2023/03/13 01:48:49;;;;;;;1.30;1.30;;;;;;;;;;5052966;28;20049;-87
2023/03/13 01:51:18;;;;;;;0.70;0.70;;;;;;;;;;5053029;28;20049;-87
2023/03/13 01:53:46;;;;;;;1.55;1.45;;;;;;;;;;5053188;28;20107;-87
2023/03/13 01:56:17;;;;;;;1.40;1.35;;;;;;;;;;5041611;28;20111;-87
2023/03/13 01:58:43;;;;;;;0.65;0.65;;;;;;;;;;5032817;28;20057;-87
2023/03/13 02:01:10;;;;;;;1.33;1.30;;;;;;;;;;5032874;28;20099;-87
2023/03/13 02:03:38;;;;;;;0.90;0.90;;;;;;;;;;5033007;28;20049;-87
2023/03/13 02:06:06;;;;;;;1.80;1.70;;;;;;;;;;5033187;28;20041;-87
2023/03/13 02:08:34;;;;;;;0.90;0.90;;;;;;;;;;5033088;28;20071;-87
2023/03/13 02:11:05;;;;;;;0.88;0.88;;;;;;;;;;5032835;28;20049;-86
2023/03/13 02:13:32;;;;;;;0.82;0.82;;;;;;;;;;5037780;28;20049;-87
2023/03/13 02:15:59;;;;;;;0.80;0.80;;;;;;;;;;5046132;28;20049;-87
2023/03/13 02:18:25;;;;;;;0.38;0.35;;;;;;;;;;5032478;28;20049;-87
2023/03/13 02:20:56;;;;;;;1.67;1.27;;;;;;;;;;5032598;28;20053;-86
2023/03/13 02:23:27;;;;;;;1.42;1.38;;;;;;;;;;5032585;28;20456;-87
2023/03/13 02:25:56;;;;;;;1.52;1.42;;;;;;;;;;5032323;28;20045;-87
2023/03/13 02:28:24;;;;;;;1.40;1.30;;;;;;;;;;5033607;28;20057;-88
2023/03/13 02:30:51;;;;;;;0.68;0.68;;;;;;;;;;5052278;28;20048;-86
2023/03/13 02:33:19;;;;;;;1.25;1.15;;;;;;;;;;5052302;28;20088;-86
2023/03/13 02:35:46;;;;;;;0.55;0.55;;;;;;;;;;5052548;28;20050;-87
2023/03/13 02:38:14;;;;;;;1.60;1.50;;;;;;;;;;5052750;28;20103;-87
2023/03/13 02:40:42;;;;;;;0.77;0.70;;;;;;;;;;5054153;28;20122;-87
2023/03/13 02:43:11;;;;;;;4.28;1.88;;;;;;;;;;5056809;28;20162;-87
2023/03/13 02:45:38;;;;;;;1.33;1.23;;;;;;;;;;5056252;28;20106;-87
2023/03/13 02:48:05;;;;;;;3.80;3.60;;;;;;;;;;5041005;28;20452;-86
2023/03/13 02:50:32;;;;;;;1.20;1.20;;;;;;;;;;5036626;28;20053;-87
2023/03/13 02:53:00;;;;;;;0.73;0.73;;;;;;;;;;5036705;28;20049;-87
2023/03/13 02:55:29;;;;;;;1.58;1.48;;;;;;;;;;5036147;28;20382;-86
2023/03/13 02:57:55;;;;;;;0.85;0.85;;;;;;;;;;5036208;28;20057;-86
2023/03/13 03:00:25;;;;;;;1.13;1.05;;;;;;;;;;5036145;28;20049;-87
2023/03/13 03:02:52;;;;;;;1.90;1.80;;;;;;;;;;5038940;28;20604;-87
2023/03/13 03:05:20;;;;;;;0.85;0.85;;;;;;;;;;5056282;28;20049;-86
2023/03/13 03:07:47;;;;;;;0.73;0.73;;;;;;;;;;5056148;28;20055;-86
2023/03/13 03:10:14;;;;;;;1.92;1.80;;;;;;;;;;5056210;28;20053;-86
2023/03/13 03:12:40;;;;;;;0.60;0.60;;;;;;;;;;5056276;28;20122;-86
2023/03/13 03:15:08;;;;;;;1.00;1.00;;;;;;;;;;5056198;28;20052;-86
2023/03/13 03:17:36;;;;;;;1.27;1.17;;;;;;;;;;5056166;28;20059;-86
2023/03/13 03:20:03;;;;;;;0.95;0.95;;;;;;;;;;5055422;28;20049;-86
2023/03/13 03:22:30;;;;;;;0.75;0.73;;;;;;;;;;5055826;28;20060;-86
2023/03/13 03:24:56;;;;;;;0.63;0.63;;;;;;;;;;5055953;28;20135;-86
2023/03/13 03:27:23;;;;;;;1.48;1.40;;;;;;;;;;5055615;28;20049;-86
2023/03/13 03:29:49;;;;;;;1.58;1.48;;;;;;;;;;5055602;28;20489;-86
2023/03/13 03:32:16;;;;;;;1.98;1.88;;;;;;;;;;5055879;28;20054;-85
2023/03/13 03:34:43;;;;;;;1.38;1.33;;;;;;;;;;5055729;28;20053;-86
2023/03/13 03:37:10;;;;;;;0.60;0.60;;;;;;;;;;5044750;28;20100;-86
2023/03/13 03:39:36;;;;;;;2.03;1.92;;;;;;;;;;5035698;28;20054;-87
2023/03/13 03:42:03;;;;;;;0.82;0.82;;;;;;;;;;5035472;28;20091;-87
2023/03/13 03:44:30;;;;;;;1.33;1.23;;;;;;;;;;5035280;28;20657;-86
2023/03/13 03:46:56;;;;;;;0.80;0.77;;;;;;;;;;5035574;28;20049;-87
2023/03/13 03:49:23;;;;;;;1.05;1.05;;;;;;;;;;5035215;28;20099;-87
2023/03/13 03:51:51;;;;;;;3.80;3.63;;;;;;;;;;5035312;28;20449;-86
2023/03/13 03:54:17;;;;;;;0.95;0.95;;;;;;;;;;5053146;28;20512;-86
2023/03/13 03:56:44;;;;;;;1.55;1.00;;;;;;;;;;5055235;28;20045;-85
2023/03/13 03:59:10;;;;;;;1.95;1.85;;;;;;;;;;5054916;28;20053;-85
2023/03/13 04:01:37;;;;;;;2.03;1.92;;;;;;;;;;5054879;28;20143;-86
2023/03/13 04:04:03;;;;;;;1.23;1.20;;;;;;;;;;5055160;28;20049;-86
2023/03/13 04:06:30;;;;;;;0.60;0.60;;;;;;;;;;5055074;28;20053;-86
2023/03/13 04:08:57;;;;;;;1.25;1.15;;;;;;;;;;5052659;28;20053;-86
2023/03/13 04:11:24;;;;;;;0.95;0.95;;;;;;;;;;5035004;28;20714;-85
2023/03/13 04:13:50;;;;;;;0.80;0.80;;;;;;;;;;5035176;28;20103;-85
2023/03/13 04:16:17;;;;;;;0.65;0.65;;;;;;;;;;5034902;28;20049;-85
2023/03/13 04:18:43;;;;;;;0.47;0.47;;;;;;;;;;5034745;28;20103;-86
2023/03/13 04:21:10;;;;;;;3.40;3.30;;;;;;;;;;5035068;28;20405;-85
2023/03/13 04:23:36;;;;;;;2.53;1.58;;;;;;;;;;5034967;28;20046;-86
2023/03/13 04:26:04;;;;;;;0.63;0.63;;;;;;;;;;5034701;28;20092;-86
2023/03/13 04:28:31;;;;;;;0.85;0.85;;;;;;;;;;5034689;28;20045;-85
2023/03/13 04:30:57;;;;;;;0.68;0.68;;;;;;;;;;5034681;28;20045;-85
2023/03/13 04:33:24;;;;;;;0.90;0.90;;;;;;;;;;5034880;28;20050;-85
2023/03/13 04:35:51;;;;;;;1.58;1.48;;;;;;;;;;5034485;28;20548;-85
2023/03/13 04:38:17;;;;;;;1.70;1.35;;;;;;;;;;5034733;28;20112;-85
2023/03/13 04:40:44;;;;;;;0.88;0.88;;;;;;;;;;5034749;28;20050;-85
2023/03/13 04:43:11;;;;;;;1.27;1.27;;;;;;;;;;5034263;28;20099;-85
2023/03/13 04:45:38;;;;;;;0.57;0.57;;;;;;;;;;5034527;28;20045;-85
2023/03/13 04:48:04;;;;;;;1.48;1.38;;;;;;;;;;5034628;28;20103;-85
2023/03/13 04:50:31;;;;;;;0.70;0.70;;;;;;;;;;5034327;28;20099;-85
2023/03/13 04:52:57;;;;;;;1.15;1.15;;;;;;;;;;5034366;28;20049;-85
2023/03/13 04:55:24;;;;;;;0.80;0.80;;;;;;;;;;5034047;28;20099;-85
2023/03/13 04:57:50;;;;;;;1.48;1.45;;;;;;;;;;5034223;28;20126;-87
2023/03/13 05:00:19;;;;;;;0.47;0.38;;;;;;;;;;5033998;28;20049;-85
2023/03/13 05:02:45;;;;;;;0.77;0.77;;;;;;;;;;5033388;28;20104;-84
2023/03/13 05:05:12;;;;;;;2.42;2.33;;;;;;;;;;5034361;28;20045;-86
2023/03/13 05:07:38;;;;;;;0.70;0.70;;;;;;;;;;5033973;28;20091;-85
2023/03/13 05:10:05;;;;;;;1.08;1.02;;;;;;;;;;5033755;28;20509;-85
2023/03/13 05:12:31;;;;;;;0.93;0.93;;;;;;;;;;5033738;28;20049;-85
2023/03/13 05:14:58;;;;;;;1.38;1.27;;;;;;;;;;5033946;28;20053;-85
2023/03/13 05:17:26;;;;;;;4.78;1.83;;;;;;;;;;5033577;28;20065;-85
2023/03/13 05:19:52;;;;;;;1.75;1.65;;;;;;;;;;5033669;28;20049;-85
2023/03/13 05:22:18;;;;;;;1.00;1.00;;;;;;;;;;5041382;28;20075;-86
2023/03/13 05:24:45;;;;;;;0.90;0.90;;;;;;;;;;5053767;28;20542;-86
2023/03/13 05:27:11;;;;;;;1.52;1.42;;;;;;;;;;5053720;28;20041;-86
2023/03/13 05:29:38;;;;;;;0.80;0.80;;;;;;;;;;5055397;28;20056;-86
2023/03/13 05:32:05;;;;;;;1.23;1.15;;;;;;;;;;5051530;28;20544;-87
2023/03/13 05:34:33;;;;;;;0.77;0.77;;;;;;;;;;5036228;28;20096;-86
2023/03/13 05:36:59;;;;;;;1.80;1.70;;;;;;;;;;5034589;28;20045;-85
2023/03/13 05:39:25;;;;;;;1.33;1.25;;;;;;;;;;5034053;28;20049;-85
2023/03/13 05:41:52;;;;;;;1.33;1.25;;;;;;;;;;5034412;28;20092;-86
2023/03/13 05:44:18;;;;;;;0.82;0.82;;;;;;;;;;5033761;28;20490;-86
2023/03/13 05:46:45;;;;;;;1.42;1.33;;;;;;;;;;5035222;28;20045;-87
2023/03/13 05:49:11;;;;;;;1.02;1.02;;;;;;;;;;5035413;28;20107;-90
2023/03/13 05:51:39;;;;;;;0.68;0.68;;;;;;;;;;5035722;28;20493;-87
2023/03/13 05:54:06;;;;;;;0.93;0.90;;;;;;;;;;5055112;28;20493;-87
2023/03/13 05:56:32;;;;;;;1.08;1.08;;;;;;;;;;5055711;28;20110;-87
2023/03/13 05:58:59;;;;;;;0.85;0.85;;;;;;;;;;5055667;28;20052;-87
2023/03/13 06:01:25;;;;;;;0.85;0.85;;;;;;;;;;5050160;28;20075;-88
2023/03/13 06:03:52;;;;;;;1.08;0.98;;;;;;;;;;5055807;28;20045;-87
2023/03/13 06:06:18;;;;;;;1.75;1.65;;;;;;;;;;5044601;28;20071;-87
2023/03/13 06:08:46;;;;;;;3.58;3.38;;;;;;;;;;5036058;28;20049;-87
2023/03/13 06:11:13;;;;;;;1.98;1.88;;;;;;;;;;5035954;28;20099;-87
2023/03/13 06:13:39;;;;;;;2.17;2.08;;;;;;;;;;5036154;28;20438;-88
2023/03/13 06:16:06;;;;;;;2.67;2.47;;;;;;;;;;5041795;28;20053;-89
2023/03/13 06:18:33;;;;;;;2.88;2.67;;;;;;;;;;5045570;28;20049;-91
2023/03/13 06:21:00;;;;;;;2.75;2.55;;;;;;;;;;5041072;28;20076;-90
2023/03/13 06:23:27;;;;;;;1.65;1.55;;;;;;;;;;5039027;28;20103;-88
2023/03/13 06:25:55;;;;;;;2.05;1.95;;;;;;;;;;5038516;28;20076;-88
2023/03/13 06:28:22;;;;;;;1.25;1.15;;;;;;;;;;5049516;28;20110;-88
2023/03/13 06:30:48;;;;;;;3.80;3.53;;;;;;;;;;5055778;28;20063;-87
2023/03/13 06:33:15;;;;;;;2.92;2.67;;;;;;;;;;5059721;28;20602;-88
2023/03/13 06:35:41;;;;;;;2.08;1.80;;;;;;;;;;5053116;28;20170;-89
2023/03/13 06:38:09;;;;;;;2.35;2.25;;;;;;;;;;5036265;28;20053;-88
2023/03/13 06:40:35;;;;;;;1.52;1.42;;;;;;;;;;5032771;28;20049;-88
2023/03/13 06:43:03;;;;;;;1.40;1.33;;;;;;;;;;5046986;28;20114;-89
2023/03/13 06:45:30;;;;;;;1.92;1.83;;;;;;;;;;5053993;28;20103;-89
2023/03/13 06:47:56;;;;;;;2.97;2.78;;;;;;;;;;5052324;28;20049;-89
2023/03/13 06:50:23;;;;;;;1.88;1.77;;;;;;;;;;5066663;28;20132;-89
2023/03/13 06:52:49;;;;;;;7.38;3.22;;;;;;;;;;5075908;28;20189;-89
2023/03/13 06:55:16;;;;;;;2.22;2.13;;;;;;;;;;5046008;28;20061;-89
2023/03/13 06:57:42;;;;;;;1.08;1.08;;;;;;;;;;5032465;28;20057;-89
2023/03/13 07:00:14;;;;;;;2.63;2.50;;;;;;;;;;5032119;28;20481;-88
2023/03/13 07:02:41;;;;;;;0.88;0.88;;;;;;;;;;5032470;28;20716;-88
2023/03/13 07:05:08;;;;;;;2.63;1.77;;;;;;;;;;5052577;28;20111;-89
2023/03/13 07:07:35;;;;;;;1.60;1.50;;;;;;;;;;5052930;28;20053;-89
2023/03/13 07:10:01;;;;;;;5.80;5.57;;;;;;;;;;5051930;28;20433;-88
2023/03/13 07:12:28;;;;;;;3.97;3.75;;;;;;;;;;5038078;28;20046;-89
2023/03/13 07:14:54;;;;;;;2.03;1.77;;;;;;;;;;5045269;28;20102;-89
2023/03/13 07:17:22;;;;;;;2.47;1.98;;;;;;;;;;5071988;28;20086;-89
2023/03/13 07:19:49;;;;;;;1.70;1.60;;;;;;;;;;5072195;28;20044;-89
2023/03/13 07:22:15;;;;;;;3.08;2.85;;;;;;;;;;5059249;28;20099;-89
2023/03/13 07:24:42;;;;;;;2.97;2.80;;;;;;;;;;5051489;28;20045;-89
2023/03/13 07:27:08;;;;;;;2.10;1.90;;;;;;;;;;5050701;28;20145;-89
2023/03/13 07:29:35;;;;;;;1.88;1.58;;;;;;;;;;5055618;28;20053;-89
2023/03/13 07:32:01;;;;;;;2.03;1.92;;;;;;;;;;5056549;28;20095;-89
2023/03/13 07:34:29;;;;;;;3.33;3.17;;;;;;;;;;5055735;28;20484;-89
2023/03/13 07:36:56;;;;;;;2.78;2.67;;;;;;;;;;5055897;28;20488;-89
2023/03/13 07:39:23;;;;;;;3.08;2.78;;;;;;;;;;5055907;28;20045;-90
2023/03/13 07:41:49;;;;;;;2.40;2.17;;;;;;;;;;5056138;28;20045;-88
2023/03/13 07:44:16;;;;;;;2.50;2.33;;;;;;;;;;5055769;28;20138;-89
2023/03/13 07:46:42;;;;;;;3.55;3.35;;;;;;;;;;5055530;28;20049;-88
2023/03/13 07:49:09;;;;;;;2.58;2.45;;;;;;;;;;5050227;28;20489;-89
2023/03/13 07:51:36;;;;;;;4.95;4.10;;;;;;;;;;5055770;28;20045;-88
2023/03/13 07:54:03;;;;;;;2.08;1.95;;;;;;;;;;5055118;28;20053;-88
2023/03/13 07:56:30;;;;;;;4.18;2.10;;;;;;;;;;5055647;28;20542;-89
2023/03/13 07:58:56;;;;;;;1.95;1.85;;;;;;;;;;5055486;28;20049;-88
2023/03/13 08:01:24;;;;;;;1.40;1.35;;;;;;;;;;5055782;28;20102;-89
2023/03/13 08:03:50;;;;;;;3.30;3.08;;;;;;;;;;5055695;28;20045;-89
2023/03/13 08:06:18;;;;;;;3.60;3.45;;;;;;;;;;5055483;28;20090;-89
2023/03/13 08:08:46;;;;;;;1.77;1.67;;;;;;;;;;5056161;28;20049;-90
2023/03/13 08:11:14;;;;;;;3.35;3.15;;;;;;;;;;5055620;28;20045;-89
2023/03/13 08:13:41;;;;;;;2.95;2.78;;;;;;;;;;5055339;28;20049;-90
2023/03/13 08:16:08;;;;;;;3.53;3.33;;;;;;;;;;5055035;28;20068;-88
2023/03/13 08:18:36;;;;;;;2.22;2.13;;;;;;;;;;5049911;28;20041;-88
2023/03/13 08:21:03;;;;;;;2.38;2.25;;;;;;;;;;5054311;28;20060;-88
2023/03/13 08:23:30;;;;;;;2.40;2.30;;;;;;;;;;5054670;28;20131;-89
2023/03/13 08:26:01;;;;;;;2.15;2.05;;;;;;;;;;5054720;28;20489;-89
2023/03/13 08:28:27;;;;;;;3.33;3.13;;;;;;;;;;5054776;28;20103;-88
2023/03/13 08:30:54;;;;;;;4.35;4.15;;;;;;;;;;5054526;28;20041;-88
2023/03/13 08:33:20;;;;;;;3.15;2.88;;;;;;;;;;5054238;28;20045;-90
2023/03/13 08:35:47;;;;;;;5.25;3.85;;;;;;;;;;5051611;28;20045;-89
2023/03/13 08:38:13;;;;;;;7.35;3.08;;;;;;;;;;5052992;28;20524;-89
2023/03/13 08:40:40;;;;;;;4.80;4.60;;;;;;;;;;5054405;28;20099;-89
2023/03/13 08:43:08;;;;;;;3.17;2.80;;;;;;;;;;5054946;28;20386;-89
2023/03/13 08:45:34;;;;;;;3.80;3.60;;;;;;;;;;5054663;28;20045;-89
2023/03/13 08:48:01;;;;;;;5.13;4.88;;;;;;;;;;5051224;28;20377;-89
2023/03/13 08:50:27;;;;;;;4.40;4.10;;;;;;;;;;5053903;28;20107;-90
2023/03/13 08:52:54;;;;;;;9.02;8.18;;;;;;;;;;5053000;28;20412;-89
2023/03/13 08:55:20;;;;;;;5.13;4.90;;;;;;;;;;5050973;28;20102;-90
2023/03/13 08:57:47;;;;;;;6.95;6.65;;;;;;;;;;5053663;28;20102;-89
2023/03/13 09:00:17;;;;;;;5.57;5.38;;;;;;;;;;5054162;28;20053;-89
2023/03/13 09:02:44;;;;;;;2.83;2.70;;;;;;;;;;5054028;28;20053;-89
2023/03/13 09:05:10;;;;;;;6.63;6.32;;;;;;;;;;5053614;28;20455;-88
2023/03/13 09:07:37;;;;;;;3.60;3.40;;;;;;;;;;5053576;28;20053;-89
2023/03/13 09:10:04;;;;;;;3.35;3.22;;;;;;;;;;5053789;28;20067;-89
2023/03/13 09:12:30;;;;;;;4.30;4.10;;;;;;;;;;5053603;28;20052;-88
2023/03/13 09:14:57;;;;;;;3.65;3.45;;;;;;;;;;5053317;28;20041;-89
2023/03/13 09:17:26;;;;;;;4.13;3.72;;;;;;;;;;5054033;28;20098;-91
2023/03/13 09:19:52;;;;;;;3.58;3.28;;;;;;;;;;5054189;28;20081;-90
2023/03/13 09:22:19;;;;;;;7.90;7.50;;;;;;;;;;5053860;28;20510;-88
2023/03/13 09:24:45;;;;;;;4.47;4.28;;;;;;;;;;5052798;28;20509;-88
2023/03/13 09:27:12;;;;;;;8.38;3.78;;;;;;;;;;5053282;28;20041;-88
2023/03/13 09:29:40;;;;;;;3.33;3.13;;;;;;;;;;5053136;28;20053;-88
2023/03/13 09:32:07;;;;;;;3.47;3.25;;;;;;;;;;5053580;28;20049;-88
2023/03/13 09:34:35;;;;;;;4.25;4.05;;;;;;;;;;5053335;28;20390;-89
2023/03/13 09:37:01;;;;;;;3.47;3.28;;;;;;;;;;5053481;28;20056;-88
2023/03/13 09:39:28;;;;;;;5.38;3.15;;;;;;;;;;5053231;28;20049;-89
2023/03/13 09:41:57;;;;;;;3.72;3.53;;;;;;;;;;5053245;28;20049;-90
2023/03/13 09:44:26;;;;;;;4.43;4.20;;;;;;;;;;5053337;28;20052;-89
2023/03/13 09:47:00;;;;;;;6.10;5.78;;;;;;;;;;5053322;28;20045;-89
2023/03/13 09:49:30;;;;;;;4.10;3.70;;;;;;;;;;5053213;28;20055;-88
2023/03/13 09:52:01;;;;;;;4.63;4.43;;;;;;;;;;5053207;28;20040;-89
2023/03/13 09:54:30;;;;;;;4.50;4.25;;;;;;;;;;5051981;28;20083;-88
2023/03/13 09:56:58;;;;;;;4.63;4.43;;;;;;;;;;5052894;28;20083;-88
2023/03/13 09:59:29;;;;;;;5.63;5.22;;;;;;;;;;5053343;28;20041;-89
2023/03/13 10:01:57;;;;;;;3.72;3.53;;;;;;;;;;5053367;28;20103;-89
2023/03/13 10:04:28;;;;;;;4.28;4.07;;;;;;;;;;5052861;28;20107;-89
2023/03/13 10:06:55;;;;;;;3.95;3.63;;;;;;;;;;5053074;28;20068;-89
2023/03/13 10:09:26;;;;;;;4.60;4.28;;;;;;;;;;5052623;28;20559;-91
2023/03/13 10:11:55;;;;;;;5.22;4.93;;;;;;;;;;5036541;28;20053;-89
2023/03/13 10:14:25;;;;;;;3.17;2.97;;;;;;;;;;5033149;28;20053;-89
2023/03/13 10:16:55;;;;;;;5.93;5.63;;;;;;;;;;5032998;28;20049;-89
2023/03/13 10:19:26;;;;;;;6.50;6.18;;;;;;;;;;5032767;28;20049;-90
2023/03/13 10:21:53;;;;;;;4.57;4.35;;;;;;;;;;5042353;28;20052;-89
2023/03/13 10:24:26;;;;;;;6.07;4.43;;;;;;;;;;5044701;28;20053;-89
2023/03/13 10:26:56;;;;;;;4.78;4.47;;;;;;;;;;5038121;28;20049;-90
2023/03/13 10:29:23;;;;;;;6.00;5.68;;;;;;;;;;5042464;28;20106;-89
2023/03/13 10:31:55;;;;;;;4.70;4.40;;;;;;;;;;5052312;28;20095;-89
2023/03/13 10:34:21;;;;;;;6.35;6.07;;;;;;;;;;5052696;28;20053;-89
2023/03/13 10:36:49;;;;;;;5.70;5.40;;;;;;;;;;5052543;28;20037;-89
2023/03/13 10:39:16;;;;;;;4.32;4.03;;;;;;;;;;5033765;28;20053;-89
2023/03/13 10:41:43;;;;;;;3.40;3.28;;;;;;;;;;5044521;28;20041;-90
2023/03/13 10:44:17;;;;;;;7.15;6.65;;;;;;;;;;5046834;28;20080;-89
2023/03/13 10:46:44;;;;;;;4.47;4.25;;;;;;;;;;5034297;28;20045;-89
2023/03/13 10:49:14;;;;;;;5.47;5.18;;;;;;;;;;5046649;28;20057;-89
2023/03/13 10:51:44;;;;;;;5.47;5.18;;;;;;;;;;5038103;28;20048;-89
2023/03/13 10:54:15;;;;;;;7.13;6.75;;;;;;;;;;5045326;28;20068;-89
2023/03/13 10:56:42;;;;;;;4.97;4.47;;;;;;;;;;5032317;28;20129;-89
2023/03/13 10:59:20;;;;;;;4.32;4.13;;;;;;;;;;5032823;28;20050;-89
2023/03/13 11:01:47;;;;;;;4.90;4.60;;;;;;;;;;5046342;28;20080;-89
2023/03/13 11:04:21;;;;;;;6.70;6.30;;;;;;;;;;5050722;28;20045;-89
2023/03/13 11:06:51;;;;;;;6.70;6.30;;;;;;;;;;5055715;28;20045;-90
2023/03/13 11:09:18;;;;;;;4.82;4.60;;;;;;;;;;5051253;28;20095;-89
2023/03/13 11:11:46;;;;;;;4.63;4.40;;;;;;;;;;5053259;28;20107;-90
2023/03/13 11:14:16;;;;;;;5.00;4.78;;;;;;;;;;5056282;28;20470;-89
2023/03/13 11:16:45;;;;;;;;;;;;;;;;;;5057776;28;20095;-89
2023/03/13 11:19:23;;;;;;;3.80;3.60;;;;;;;;;;5056296;28;20269;-87
2023/03/13 11:21:54;;;;;;;4.88;4.57;;;;;;;;;;5055706;28;20079;-88
2023/03/13 11:24:25;;;;;;;10.13;9.68;;;;;;;;;;5041453;28;20107;-87
2023/03/13 11:26:55;;;;;;;7.60;5.25;;;;;;;;;;5055597;28;20049;-88
2023/03/13 11:29:26;;;;;;;5.28;5.05;;;;;;;;;;5055788;28;20106;-88
2023/03/13 11:31:56;;;;;;;3.72;3.53;;;;;;;;;;5058029;28;20447;-87
2023/03/13 11:34:26;;;;;;;4.05;3.83;;;;;;;;;;5051539;28;20459;-88
2023/03/13 11:37:00;;;;;;;6.55;6.15;;;;;;;;;;5037816;28;20050;-89
2023/03/13 11:39:36;;;;;;;6.97;6.65;;;;;;;;;;5051857;28;20057;-89
2023/03/13 11:42:06;;;;;;;5.25;4.03;;;;;;;;;;5055166;28;20049;-88
2023/03/13 11:44:40;;;;;;;6.00;5.70;;;;;;;;;;5055353;28;20048;-89
2023/03/13 11:47:36;;;;;;;6.50;6.20;;;;;;;;;;5049818;28;20493;-89
2023/03/13 11:50:15;;;;;;;6.43;6.13;;;;;;;;;;5047886;28;20053;-88
2023/03/13 11:52:46;;;;;;;5.15;4.25;;;;;;;;;;5054362;28;20497;-87
2023/03/13 11:55:18;;;;;;;7.57;7.20;;;;;;;;;;5054827;28;20107;-89
2023/03/13 11:57:52;;;;;;;7.75;7.35;;;;;;;;;;5054842;28;20069;-88
2023/03/13 12:00:24;;;;;;;7.10;6.78;;;;;;;;;;5054959;28;20048;-89
2023/03/13 12:02:53;;;;;;;6.75;6.45;;;;;;;;;;5055024;28;20522;-89
2023/03/13 12:05:22;;;;;;;4.28;3.97;;;;;;;;;;5049863;28;20467;-89
2023/03/13 12:07:51;;;;;;;7.60;7.30;;;;;;;;;;5054783;28;20045;-89
2023/03/13 12:10:22;;;;;;;5.03;4.65;;;;;;;;;;5054469;28;20099;-89
2023/03/13 12:12:51;;;;;;;6.20;5.90;;;;;;;;;;5036363;28;20041;-89
2023/03/13 12:15:20;;;;;;;6.80;6.30;;;;;;;;;;5054809;28;20053;-90
2023/03/13 12:17:49;;;;;;;10.80;10.30;;;;;;;;;;5054274;28;20642;-89
2023/03/13 12:20:19;;;;;;;5.97;5.60;;;;;;;;;;5061715;28;20052;-89
2023/03/13 12:22:52;;;;;;;5.13;4.82;;;;;;;;;;5074201;28;20149;-88
2023/03/13 12:25:21;;;;;;;7.07;6.78;;;;;;;;;;5066072;28;20052;-89
2023/03/13 12:27:49;;;;;;;6.32;5.88;;;;;;;;;;5054701;28;20127;-89
2023/03/13 12:30:21;;;;;;;4.60;4.40;;;;;;;;;;5046503;28;20455;-88
2023/03/13 12:32:50;;;;;;;5.70;5.40;;;;;;;;;;5048996;28;20060;-88
2023/03/13 12:35:19;;;;;;;6.05;4.57;;;;;;;;;;5053632;28;20496;-88
2023/03/13 12:37:50;;;;;;;5.38;4.97;;;;;;;;;;5054151;28;20423;-89
2023/03/13 12:40:20;;;;;;;5.60;5.28;;;;;;;;;;5054067;28;20053;-89
2023/03/13 12:42:51;;;;;;;10.02;9.63;;;;;;;;;;5053934;28;20758;-89
2023/03/13 12:45:18;;;;;;;5.57;5.20;;;;;;;;;;5054384;28;20049;-88
2023/03/13 12:47:59;;;;;;;3.90;3.70;;;;;;;;;;5050560;28;20067;-88
2023/03/13 12:50:31;;;;;;;3.55;3.35;;;;;;;;;;5048165;28;20052;-89
2023/03/13 12:53:16;;;;;;;6.28;5.93;;;;;;;;;;5060003;28;20106;-88
2023/03/13 12:56:03;;;;;;;4.95;4.75;;;;;;;;;;5053539;28;20045;-89
2023/03/13 12:58:37;;;;;;;3.70;3.50;;;;;;;;;;5053559;28;20056;-88
2023/03/13 13:01:05;;;;;;;4.25;4.03;;;;;;;;;;5040482;28;20107;-89
2023/03/13 13:03:35;;;;;;;6.45;6.03;;;;;;;;;;5046068;28;20102;-88
2023/03/13 13:06:09;;;;;;;4.22;4.00;;;;;;;;;;5052211;28;20061;-89
2023/03/13 13:08:39;;;;;;;6.10;5.78;;;;;;;;;;5053284;28;20053;-89
2023/03/13 13:11:20;;;;;;;3.85;3.30;;;;;;;;;;5053431;28;20053;-89
2023/03/13 13:13:48;;;;;;;3.05;2.92;;;;;;;;;;5032024;28;20451;-89
2023/03/13 13:16:18;;;;;;;4.55;4.35;;;;;;;;;;5047818;28;20049;-89
2023/03/13 13:18:44;;;;;;;5.72;5.22;;;;;;;;;;5067270;28;20052;-89
2023/03/13 13:21:22;;;;;;;6.32;6.07;;;;;;;;;;5046170;28;20049;-88
2023/03/13 13:23:52;;;;;;;3.80;3.60;;;;;;;;;;5033052;28;20045;-88
2023/03/13 13:26:46;;;;;;;3.78;3.58;;;;;;;;;;5066448;28;20127;-88
2023/03/13 13:29:30;;;;;;;6.85;6.53;;;;;;;;;;5067038;28;20049;-88
2023/03/13 13:32:00;;;;;;;8.65;8.25;;;;;;;;;;5052235;28;20456;-88
2023/03/13 13:34:45;;;;;;;6.85;6.47;;;;;;;;;;5053302;28;20060;-88
2023/03/13 13:37:26;;;;;;;5.72;5.43;;;;;;;;;;5066440;28;20057;-87
2023/03/13 13:39:53;;;;;;;3.45;3.25;;;;;;;;;;5059531;28;20044;-88
2023/03/13 13:42:42;;;;;;;4.35;4.13;;;;;;;;;;5057079;28;20102;-89
2023/03/13 13:45:21;;;;;;;7.15;6.75;;;;;;;;;;5050167;28;20412;-89
2023/03/13 13:47:50;;;;;;;4.43;4.22;;;;;;;;;;5052560;28;20057;-89
2023/03/13 13:50:18;;;;;;;4.93;4.63;;;;;;;;;;5051890;28;20053;-89
2023/03/13 13:52:45;;;;;;;6.65;6.35;;;;;;;;;;5052903;28;20049;-89
2023/03/13 13:55:33;;;;;;;7.82;7.50;;;;;;;;;;5052976;28;20056;-89
2023/03/13 13:58:00;;;;;;;4.70;4.40;;;;;;;;;;5056854;28;20060;-89
2023/03/13 14:00:27;;;;;;;4.90;4.70;;;;;;;;;;5040653;28;20052;-88
2023/03/13 14:02:56;;;;;;;11.65;9.50;;;;;;;;;;5032706;28;20548;-89
2023/03/13 14:05:25;;;;;;;8.05;7.53;;;;;;;;;;5032239;28;20053;-89
2023/03/13 14:07:55;;;;;;;11.48;9.13;;;;;;;;;;5047089;28;20048;-88
2023/03/13 14:10:28;;;;;;;7.28;6.88;;;;;;;;;;5054340;28;20104;-87
2023/03/13 14:12:55;;;;;;;6.95;6.65;;;;;;;;;;5056982;28;20041;-88
2023/03/13 14:15:23;;;;;;;5.53;5.18;;;;;;;;;;5056462;28;20053;-89
2023/03/13 14:17:50;;;;;;;3.58;3.35;;;;;;;;;;5053208;28;20040;-90
2023/03/13 14:20:21;;;;;;;8.20;7.50;;;;;;;;;;5052782;28;20114;-89
2023/03/13 14:22:49;;;;;;;7.07;6.78;;;;;;;;;;5033044;28;20099;-88
2023/03/13 14:25:15;;;;;;;4.78;4.55;;;;;;;;;;5032424;28;20871;-88
2023/03/13 14:27:45;;;;;;;6.45;6.13;;;;;;;;;;5037503;28;20057;-88
2023/03/13 14:30:14;;;;;;;6.38;6.05;;;;;;;;;;5033083;28;20050;-88
2023/03/13 14:32:40;;;;;;;4.53;4.32;;;;;;;;;;5052583;28;20052;-88
2023/03/13 14:35:08;;;;;;;3.60;3.08;;;;;;;;;;5051897;28;20689;-89
2023/03/13 14:37:37;;;;;;;7.03;6.53;;;;;;;;;;5052127;28;20045;-89
2023/03/13 14:40:09;;;;;;;6.95;6.63;;;;;;;;;;5052358;28;20098;-88
2023/03/13 14:42:39;;;;;;;3.97;3.78;;;;;;;;;;5053552;28;20055;-88
2023/03/13 14:45:13;;;;;;;6.03;5.70;;;;;;;;;;5053282;28;20045;-88
2023/03/13 14:47:40;;;;;;;6.25;5.93;;;;;;;;;;5031761;28;20056;-87
2023/03/13 14:50:11;;;;;;;9.05;8.65;;;;;;;;;;5031629;28;20065;-88